createdAt,value
2023-02-01T00:00:54.873Z,88.45
2023-02-01T00:06:03.203Z,88.73
2023-02-01T00:11:10.149Z,88.93
2023-02-01T00:16:18.106Z,88.79
2023-02-01T00:21:22.261Z,89.01
2023-02-01T00:26:39.127Z,89.27
2023-02-01T00:31:42.807Z,89.72
2023-02-01T00:36:46.925Z,89.81
2023-02-01T00:41:50.035Z,89.83
2023-02-01T00:46:53.312Z,89.99
2023-02-01T00:51:57.102Z,90.14
2023-02-01T00:57:00.289Z,90.20
2023-02-01T01:02:03.679Z,90.32
2023-02-01T01:07:07.206Z,90.39
2023-02-01T01:12:10.410Z,90.34
2023-02-01T01:17:13.724Z,90.30
2023-02-01T01:22:16.864Z,90.27
2023-02-01T01:27:24.545Z,90.36
2023-02-01T01:32:27.705Z,90.36
2023-02-01T01:37:30.861Z,90.29
2023-02-01T01:42:42.731Z,90.39
2023-02-01T01:47:53.261Z,90.43
2023-02-01T01:53:00.126Z,90.53
2023-02-01T01:58:11.119Z,90.48
2023-02-01T02:03:35.952Z,90.25
2023-02-01T02:08:39.078Z,90.02
2023-02-01T02:13:47.744Z,89.83
2023-02-01T02:19:26.332Z,89.73
2023-02-01T02:24:57.602Z,89.79
2023-02-01T02:30:33.493Z,89.93
2023-02-01T02:35:57.875Z,89.83
2023-02-01T02:41:51.883Z,89.93
2023-02-01T02:47:24.789Z,89.90
2023-02-01T02:52:48.068Z,89.83
2023-02-01T02:58:10.748Z,89.80
2023-02-01T03:03:32.599Z,89.89
2023-02-01T03:08:35.879Z,89.89
2023-02-01T03:13:53.324Z,89.90
2023-02-01T03:19:22.142Z,89.87
2023-02-01T03:24:34.555Z,89.86
2023-02-01T03:30:20.558Z,89.82
2023-02-01T03:35:35.869Z,89.90
2023-02-01T03:40:42.959Z,90.01
2023-02-01T03:45:54.241Z,90.10
2023-02-01T03:51:01.623Z,90.23
2023-02-01T03:56:06.377Z,90.21
2023-02-01T04:01:09.455Z,90.23
2023-02-01T04:06:12.519Z,90.25
2023-02-01T04:11:16.055Z,90.10
2023-02-01T04:16:19.154Z,90.21
2023-02-01T04:21:22.266Z,90.21
2023-02-01T04:26:25.704Z,90.28
2023-02-01T04:31:29.192Z,90.08
2023-02-01T04:36:32.493Z,89.59
2023-02-01T04:41:35.806Z,89.59
2023-02-01T04:46:39.623Z,89.71
2023-02-01T04:51:44.266Z,90.03
2023-02-01T04:56:47.379Z,90.31
2023-02-01T05:01:50.583Z,90.60
2023-02-01T05:06:53.709Z,90.81
2023-02-01T05:12:15.550Z,90.68
2023-02-01T05:17:18.848Z,90.55
2023-02-01T05:22:22.054Z,90.43
2023-02-01T05:27:25.264Z,90.33
2023-02-01T05:32:28.424Z,90.29
2023-02-01T05:37:31.724Z,90.24
2023-02-01T05:42:35.102Z,89.99
2023-02-01T05:47:38.828Z,90.06
2023-02-01T05:52:41.923Z,89.86
2023-02-01T05:57:45.129Z,89.81
2023-02-01T06:02:48.491Z,89.89
2023-02-01T06:07:51.902Z,89.86
2023-02-01T06:12:55.169Z,89.76
2023-02-01T06:17:58.580Z,89.85
2023-02-01T06:23:01.901Z,89.73
2023-02-01T06:28:06.947Z,89.61
2023-02-01T06:33:10.073Z,89.54
2023-02-01T06:38:13.360Z,89.58
2023-02-01T06:43:16.389Z,89.53
2023-02-01T06:48:20.391Z,89.43
2023-02-01T06:53:24.032Z,89.44
2023-02-01T06:58:32.801Z,89.38
2023-02-01T07:03:36.973Z,89.45
2023-02-01T07:08:40.092Z,89.62
2023-02-01T07:13:43.698Z,89.76
2023-02-01T07:18:48.418Z,89.94
2023-02-01T07:23:51.661Z,90.04
2023-02-01T07:28:54.866Z,90.18
2023-02-01T07:33:59.439Z,90.04
2023-02-01T07:39:02.615Z,90.00
2023-02-01T07:44:06.524Z,89.91
2023-02-01T07:49:09.847Z,90.01
2023-02-01T07:54:12.969Z,90.10
2023-02-01T07:59:17.186Z,90.29
2023-02-01T08:04:20.398Z,90.29
2023-02-01T08:09:23.608Z,90.19
2023-02-01T08:14:26.919Z,90.11
2023-02-01T08:19:30.123Z,89.92
2023-02-01T08:24:35.042Z,89.89
2023-02-01T08:29:38.394Z,89.58
2023-02-01T08:34:41.615Z,89.62
2023-02-01T08:39:47.758Z,89.83
2023-02-01T08:44:51.107Z,89.78
2023-02-01T08:49:54.904Z,89.61
2023-02-01T08:54:58.224Z,89.43
2023-02-01T09:00:01.729Z,89.18
2023-02-01T09:05:07.100Z,89.06
2023-02-01T09:10:11.611Z,88.72
2023-02-01T09:15:14.843Z,88.61
2023-02-01T09:20:20.088Z,88.48
2023-02-01T09:25:23.350Z,88.11
2023-02-01T09:30:27.064Z,87.65
2023-02-01T09:35:30.836Z,87.30
2023-02-01T09:40:36.618Z,87.07
2023-02-01T09:46:00.848Z,86.76
2023-02-01T09:51:12.119Z,86.67
2023-02-01T09:56:53.638Z,87.46
2023-02-01T10:01:57.487Z,88.00
2023-02-01T10:07:30.352Z,88.30
2023-02-01T10:13:04.694Z,88.57
2023-02-01T10:18:38.720Z,88.46
2023-02-01T10:24:46.853Z,88.39
2023-02-01T10:30:00.923Z,88.22
2023-02-01T10:35:28.500Z,87.39
2023-02-01T10:40:32.952Z,86.94
2023-02-01T10:45:36.459Z,86.65
2023-02-01T10:50:56.661Z,86.71
2023-02-01T10:56:09.137Z,87.09
2023-02-01T11:01:22.596Z,87.14
2023-02-01T11:06:44.819Z,87.42
2023-02-01T11:11:48.013Z,87.75
2023-02-01T11:17:21.206Z,87.53
2023-02-01T11:22:29.606Z,87.38
2023-02-01T11:27:40.334Z,87.01
2023-02-01T11:32:49.842Z,87.11
2023-02-01T11:38:02.307Z,87.45
2023-02-01T11:43:28.512Z,87.82
2023-02-01T11:48:34.826Z,87.64
2023-02-01T11:54:36.503Z,87.40
2023-02-01T12:00:32.559Z,87.36
2023-02-01T12:06:01.408Z,87.61
2023-02-01T12:11:31.416Z,87.96
2023-02-01T12:17:04.921Z,88.71
2023-02-01T12:22:33.832Z,89.11
2023-02-01T12:27:56.915Z,89.39
2023-02-01T12:33:25.004Z,89.53
2023-02-01T12:39:00.772Z,89.54
2023-02-01T12:44:38.309Z,89.60
2023-02-01T12:49:57.081Z,89.80
2023-02-01T12:55:09.320Z,89.78
2023-02-01T13:00:39.875Z,89.69
2023-02-01T13:05:59.732Z,89.83
2023-02-01T13:11:25.980Z,89.94
2023-02-01T13:16:43.693Z,89.96
2023-02-01T13:22:00.760Z,89.91
2023-02-01T13:27:04.280Z,89.89
2023-02-01T13:33:51.026Z,89.85
2023-02-01T13:38:38.859Z,89.81
2023-02-01T13:43:50.302Z,89.70
2023-02-01T13:49:02.285Z,89.62
2023-02-01T13:54:07.216Z,89.61
2023-02-01T14:00:08.716Z,89.50
2023-02-01T14:05:33.109Z,89.30
2023-02-01T14:10:55.462Z,89.22
2023-02-01T14:16:04.452Z,89.18
2023-02-01T14:21:23.752Z,89.32
2023-02-01T14:26:51.431Z,89.46
2023-02-01T14:32:21.067Z,89.32
2023-02-01T14:37:31.557Z,88.99
2023-02-01T14:42:53.516Z,88.75
2023-02-01T14:48:08.643Z,88.82
2023-02-01T14:53:12.772Z,88.95
2023-02-01T14:58:50.573Z,88.93
2023-02-01T15:04:19.607Z,88.72
2023-02-01T15:09:38.058Z,88.64
2023-02-01T15:15:24.109Z,88.51
2023-02-01T15:20:34.071Z,88.43
2023-02-01T15:25:40.174Z,88.33
2023-02-01T15:31:00.043Z,88.31
2023-02-01T15:36:06.416Z,88.27
2023-02-01T15:41:20.661Z,88.15
2023-02-01T15:46:48.291Z,87.96
2023-02-01T15:51:52.403Z,87.75
2023-02-01T15:56:59.905Z,87.50
2023-02-01T16:02:03.371Z,87.53
2023-02-01T16:07:29.452Z,87.56
2023-02-01T16:12:47.684Z,87.65
2023-02-01T16:17:51.758Z,87.70
2023-02-01T16:22:55.055Z,87.71
2023-02-01T16:27:58.983Z,87.71
2023-02-01T16:33:03.807Z,87.57
2023-02-01T16:38:14.217Z,87.26
2023-02-01T16:43:24.809Z,87.18
2023-02-01T16:48:34.142Z,87.21
2023-02-01T16:53:53.071Z,87.33
2023-02-01T16:58:58.546Z,87.45
2023-02-01T17:04:03.683Z,87.57
2023-02-01T17:09:07.646Z,87.64
2023-02-01T17:14:22.683Z,87.62
2023-02-01T17:19:28.804Z,87.69
2023-02-01T17:24:47.600Z,87.71
2023-02-01T17:29:52.013Z,87.82
2023-02-01T17:34:55.126Z,87.95
2023-02-01T17:39:58.945Z,87.90
2023-02-01T17:45:53.075Z,87.71
2023-02-01T17:50:59.049Z,87.51
2023-02-01T17:56:02.517Z,87.35
2023-02-01T18:01:05.868Z,87.25
2023-02-01T18:06:22.783Z,87.11
2023-02-01T18:11:26.298Z,86.76
2023-02-01T18:16:33.433Z,86.63
2023-02-01T18:21:43.209Z,86.32
2023-02-01T18:26:46.399Z,86.12
2023-02-01T18:31:51.115Z,85.90
2023-02-01T18:36:54.438Z,85.85
2023-02-01T18:41:58.854Z,85.86
2023-02-01T18:47:01.970Z,85.89
2023-02-01T18:52:06.856Z,86.12
2023-02-01T18:57:11.368Z,86.38
2023-02-01T19:02:15.214Z,86.71
2023-02-01T19:07:18.593Z,86.83
2023-02-01T19:12:22.212Z,87.08
2023-02-01T19:17:25.719Z,87.48
2023-02-01T19:22:28.970Z,87.61
2023-02-01T19:27:32.554Z,87.79
2023-02-01T19:32:35.757Z,87.96
2023-02-01T19:37:41.841Z,88.10
2023-02-01T19:42:46.842Z,88.11
2023-02-01T19:47:50.007Z,88.18
2023-02-01T19:52:53.407Z,88.29
2023-02-01T19:57:56.844Z,88.40
2023-02-01T20:02:59.313Z,88.46
2023-02-01T20:08:03.723Z,88.52
2023-02-01T20:13:06.916Z,88.54
2023-02-01T20:18:10.849Z,88.50
2023-02-01T20:23:14.054Z,88.58
2023-02-01T20:28:18.650Z,88.67
2023-02-01T20:33:21.862Z,88.77
2023-02-01T20:38:25.269Z,89.03
2023-02-01T20:43:28.379Z,89.17
2023-02-01T20:48:31.801Z,89.19
2023-02-01T20:53:35.108Z,89.23
2023-02-01T20:58:38.648Z,89.35
2023-02-01T21:03:42.427Z,89.47
2023-02-01T21:08:45.604Z,89.58
2023-02-01T21:13:51.675Z,89.58
2023-02-01T21:18:54.864Z,89.60
2023-02-01T21:23:59.613Z,89.63
2023-02-01T21:29:03.010Z,89.65
2023-02-01T21:34:07.014Z,89.71
2023-02-01T21:39:12.590Z,89.86
2023-02-01T21:44:16.343Z,89.96
2023-02-01T21:49:19.532Z,90.01
2023-02-01T21:54:23.042Z,89.96
2023-02-01T21:59:26.178Z,90.07
2023-02-01T22:04:29.510Z,90.29
2023-02-01T22:09:32.772Z,90.37
2023-02-01T22:14:36.091Z,90.35
2023-02-01T22:19:41.031Z,90.33
2023-02-01T22:24:44.468Z,90.37
2023-02-01T22:29:47.858Z,90.32
2023-02-01T22:34:51.064Z,90.25
2023-02-01T22:39:55.600Z,90.11
2023-02-01T22:45:01.194Z,90.07
2023-02-01T22:50:05.081Z,90.11
2023-02-01T22:55:08.894Z,90.25
2023-02-01T23:00:13.580Z,90.30
2023-02-01T23:05:17.052Z,90.22
2023-02-01T23:10:22.096Z,90.17
2023-02-01T23:15:25.525Z,90.15
2023-02-01T23:20:31.889Z,90.14
2023-02-01T23:25:35.105Z,90.05
2023-02-01T23:30:38.433Z,90.00
2023-02-01T23:35:41.820Z,90.09
2023-02-01T23:40:44.934Z,90.06
2023-02-01T23:45:48.157Z,90.03
2023-02-01T23:50:51.360Z,90.00
2023-02-01T23:55:55.985Z,89.99
